createdAt,value
2016-09-12T00:00:40.541Z,19.23
2016-09-12T00:01:40.823Z,19.18
2016-09-12T00:02:40.818Z,19.14
2016-09-12T00:03:41.060Z,19.07
2016-09-12T00:04:40.729Z,19.1
2016-09-12T00:05:40.408Z,19.07
2016-09-12T00:06:40.665Z,19.04
2016-09-12T00:07:40.665Z,19.06
2016-09-12T00:08:40.309Z,18.99
2016-09-12T00:09:40.281Z,19.08
2016-09-12T00:10:40.246Z,18.95
2016-09-12T00:11:40.232Z,19.04
2016-09-12T00:12:40.191Z,18.92
2016-09-12T00:13:40.157Z,18.98
2016-09-12T00:14:40.286Z,18.98
2016-09-12T00:15:40.094Z,18.95
2016-09-12T00:16:40.678Z,18.95
2016-09-12T00:17:40.019Z,18.91
2016-09-12T00:18:39.993Z,18.95
2016-09-12T00:19:39.959Z,18.84
2016-09-12T00:20:40.035Z,18.87
2016-09-12T00:21:40.546Z,18.81
2016-09-12T00:22:40.176Z,18.78
2016-09-12T00:23:40.173Z,18.84
2016-09-12T00:24:39.865Z,18.81
2016-09-12T00:25:39.782Z,18.87
2016-09-12T00:26:39.786Z,18.92
2016-09-12T00:27:39.717Z,18.9
2016-09-12T00:28:39.988Z,18.92
2016-09-12T00:29:39.653Z,18.85
2016-09-12T00:30:39.931Z,18.81
2016-09-12T00:31:39.613Z,18.81
2016-09-12T00:32:39.572Z,18.82
2016-09-12T00:33:39.838Z,18.75
2016-09-12T00:34:39.814Z,18.8
2016-09-12T00:35:39.491Z,18.76
2016-09-12T00:36:39.469Z,18.84
2016-09-12T00:37:39.511Z,18.7
2016-09-12T00:38:39.688Z,18.75
2016-09-12T00:39:39.377Z,18.75
2016-09-12T00:40:39.334Z,18.72
2016-09-12T00:41:39.289Z,18.75
2016-09-12T00:42:39.918Z,18.7
2016-09-12T00:43:39.538Z,18.58
2016-09-12T00:44:39.820Z,18.62
2016-09-12T00:45:39.190Z,18.67
2016-09-12T00:46:39.503Z,18.65
2016-09-12T00:47:39.106Z,18.57
2016-09-12T00:48:39.421Z,18.7
2016-09-12T00:49:39.362Z,18.69
2016-09-12T00:50:39.163Z,18.63
2016-09-12T00:51:39.019Z,18.62
2016-09-12T00:52:39.256Z,18.57
2016-09-12T00:53:38.917Z,18.63
2016-09-12T00:54:38.880Z,18.65
2016-09-12T00:55:38.870Z,18.67
2016-09-12T00:56:39.128Z,18.55
2016-09-12T00:57:38.800Z,18.62
2016-09-12T00:58:39.062Z,18.58
2016-09-12T00:59:38.766Z,18.58
2016-09-12T01:00:39.011Z,18.65
2016-09-12T01:01:38.982Z,18.62
2016-09-12T01:02:38.645Z,18.63
2016-09-12T01:03:38.605Z,18.65
2016-09-12T01:04:38.576Z,18.58
2016-09-12T01:05:38.846Z,18.6
2016-09-12T01:06:38.514Z,18.7
2016-09-12T01:07:38.785Z,18.65
2016-09-12T01:08:38.771Z,18.6
2016-09-12T01:09:38.437Z,18.7
2016-09-12T01:10:38.394Z,18.6
2016-09-12T01:11:38.362Z,18.62
2016-09-12T01:12:38.343Z,18.58
2016-09-12T01:13:38.606Z,18.67
2016-09-12T01:14:38.278Z,18.62
2016-09-12T01:15:38.549Z,18.51
2016-09-12T01:16:38.509Z,18.5
2016-09-12T01:17:38.193Z,18.57
2016-09-12T01:18:38.505Z,18.42
2016-09-12T01:19:38.118Z,18.55
2016-09-12T01:20:38.096Z,18.5
2016-09-12T01:21:38.372Z,18.44
2016-09-12T01:22:38.666Z,18.48
2016-09-12T01:23:38.024Z,18.51
2016-09-12T01:24:38.270Z,18.47
2016-09-12T01:25:37.936Z,18.37
2016-09-12T01:26:37.918Z,18.39
2016-09-12T01:27:38.170Z,18.41
2016-09-12T01:28:37.833Z,18.35
2016-09-12T01:29:37.812Z,18.36
2016-09-12T01:30:38.135Z,18.32
2016-09-12T01:31:38.045Z,18.21
2016-09-12T01:32:38.061Z,18.26
2016-09-12T01:33:37.984Z,18.2
2016-09-12T01:34:37.654Z,18.17
2016-09-12T01:35:37.620Z,18.15
2016-09-12T01:36:37.891Z,18.05
2016-09-12T01:37:37.857Z,18.11
2016-09-12T01:38:37.522Z,18.1
2016-09-12T01:39:37.513Z,18.08
2016-09-12T01:40:38.111Z,18.03
2016-09-12T01:41:37.714Z,17.89
2016-09-12T01:42:37.406Z,18
2016-09-12T01:43:37.387Z,17.87
2016-09-12T01:44:37.954Z,17.93
2016-09-12T01:45:37.628Z,17.86
2016-09-12T01:46:37.286Z,17.84
2016-09-12T01:47:37.250Z,17.7
2016-09-12T01:48:37.211Z,17.71
2016-09-12T01:49:37.186Z,17.62
2016-09-12T01:50:37.182Z,17.7
2016-09-12T01:51:37.123Z,17.59
2016-09-12T01:52:37.453Z,17.52
2016-09-12T01:53:37.072Z,17.44
2016-09-12T01:54:37.050Z,17.43
2016-09-12T01:55:36.999Z,17.34
2016-09-12T01:56:37.010Z,17.38
2016-09-12T01:57:36.947Z,17.37
2016-09-12T01:58:37.232Z,17.34
2016-09-12T01:59:37.471Z,17.19
2016-09-12T02:00:37.146Z,17.25
2016-09-12T02:01:36.810Z,17.07
2016-09-12T02:02:37.079Z,17.11
2016-09-12T02:03:36.767Z,17.07
2016-09-12T02:04:37.029Z,17.03
2016-09-12T02:05:36.685Z,16.94
2016-09-12T02:06:36.953Z,16.91
2016-09-12T02:07:36.624Z,16.89
2016-09-12T02:08:36.922Z,16.86
2016-09-12T02:09:36.863Z,16.82
2016-09-12T02:10:36.766Z,16.73
2016-09-12T02:11:36.548Z,16.7
2016-09-12T02:12:36.465Z,16.67
2016-09-12T02:13:36.463Z,16.6
2016-09-12T02:14:36.717Z,16.5
2016-09-12T02:15:36.371Z,16.53
2016-09-12T02:16:36.385Z,16.5
2016-09-12T02:17:36.680Z,16.35
2016-09-12T02:18:36.287Z,16.43
2016-09-12T02:19:36.437Z,16.35
2016-09-12T02:20:36.513Z,16.33
2016-09-12T02:21:36.589Z,16.3
2016-09-12T02:22:36.165Z,16.27
2016-09-12T02:23:36.439Z,16.23
2016-09-12T02:24:36.499Z,16.23
2016-09-12T02:25:36.109Z,16.2
2016-09-12T02:26:36.083Z,16.11
2016-09-12T02:27:35.999Z,16.07
2016-09-12T02:28:35.955Z,16.12
2016-09-12T02:29:35.936Z,15.97
2016-09-12T02:30:36.122Z,15.97
2016-09-12T02:31:35.880Z,15.93
2016-09-12T02:32:36.135Z,15.92
2016-09-12T02:33:36.402Z,15.86
2016-09-12T02:34:36.214Z,15.84
2016-09-12T02:35:35.737Z,15.9
2016-09-12T02:36:35.712Z,15.8
2016-09-12T02:37:35.694Z,15.78
2016-09-12T02:38:35.665Z,15.76
2016-09-12T02:39:36.037Z,15.78
2016-09-12T02:40:35.641Z,15.75
2016-09-12T02:41:35.562Z,15.78
2016-09-12T02:42:35.523Z,15.74
2016-09-12T02:43:35.482Z,15.76
2016-09-12T02:44:35.770Z,15.74
2016-09-12T02:45:35.413Z,15.68
2016-09-12T02:46:35.400Z,15.76
2016-09-12T02:47:35.346Z,15.68
2016-09-12T02:48:35.321Z,15.65
2016-09-12T02:49:35.601Z,15.64
2016-09-12T02:50:35.257Z,15.64
2016-09-12T02:51:35.615Z,15.65
2016-09-12T02:52:35.494Z,15.57
2016-09-12T02:53:35.165Z,15.59
2016-09-12T02:54:35.136Z,15.56
2016-09-12T02:55:35.093Z,15.51
2016-09-12T02:56:35.369Z,15.44
2016-09-12T02:57:35.124Z,15.47
2016-09-12T02:58:35.017Z,15.41
2016-09-12T02:59:35.273Z,15.39
2016-09-12T03:00:35.287Z,15.44
2016-09-12T03:01:35.246Z,15.32
2016-09-12T03:02:34.880Z,15.39
2016-09-12T03:03:35.177Z,15.36
2016-09-12T03:04:34.816Z,15.31
2016-09-12T03:05:35.206Z,15.28
2016-09-12T03:06:34.747Z,15.25
2016-09-12T03:07:35.020Z,15.14
2016-09-12T03:08:34.712Z,15.14
2016-09-12T03:09:34.960Z,15.25
2016-09-12T03:10:34.649Z,15.21
2016-09-12T03:11:34.582Z,15.19
2016-09-12T03:12:34.541Z,15.14
2016-09-12T03:13:34.514Z,15.16
2016-09-12T03:14:34.490Z,15.13
2016-09-12T03:15:35.064Z,15.11
2016-09-12T03:16:35.025Z,15.09
2016-09-12T03:17:34.385Z,15.09
2016-09-12T03:18:34.654Z,15.09
2016-09-12T03:19:34.921Z,15.07
2016-09-12T03:20:34.585Z,14.99
2016-09-12T03:21:34.574Z,14.98
2016-09-12T03:22:34.519Z,14.98
2016-09-12T03:23:34.191Z,14.92
2016-09-12T03:24:34.159Z,14.86
2016-09-12T03:25:34.444Z,14.91
2016-09-12T03:26:34.395Z,14.92
2016-09-12T03:27:34.658Z,14.94
2016-09-12T03:28:34.022Z,14.91
2016-09-12T03:29:34.007Z,14.88
2016-09-12T03:30:34.016Z,14.86
2016-09-12T03:31:33.938Z,14.88
2016-09-12T03:32:33.895Z,14.86
2016-09-12T03:33:34.461Z,14.91
2016-09-12T03:34:34.130Z,14.89
2016-09-12T03:35:34.098Z,14.84
2016-09-12T03:36:34.331Z,14.84
2016-09-12T03:37:34.034Z,14.86
2016-09-12T03:38:33.693Z,14.86
2016-09-12T03:39:33.661Z,14.81
2016-09-12T03:40:33.938Z,14.81
2016-09-12T03:41:33.917Z,14.81
2016-09-12T03:42:33.565Z,14.78
2016-09-12T03:43:33.835Z,14.81
2016-09-12T03:44:33.812Z,14.7
2016-09-12T03:45:34.083Z,14.75
2016-09-12T03:46:33.451Z,14.7
2016-09-12T03:47:33.412Z,14.68
2016-09-12T03:48:33.606Z,14.73
2016-09-12T03:49:33.342Z,14.72
2016-09-12T03:50:33.620Z,14.72
2016-09-12T03:51:33.579Z,14.72
2016-09-12T03:52:33.557Z,14.69
2016-09-12T03:53:33.508Z,14.65
2016-09-12T03:54:33.622Z,14.57
2016-09-12T03:55:33.156Z,14.62
2016-09-12T03:56:33.141Z,14.58
2016-09-12T03:57:33.394Z,14.61
2016-09-12T03:58:33.047Z,14.6
2016-09-12T03:59:33.315Z,14.61
2016-09-12T04:00:32.972Z,14.65
2016-09-12T04:01:32.952Z,14.58
2016-09-12T04:02:32.903Z,14.62
2016-09-12T04:03:32.922Z,14.55
2016-09-12T04:04:32.904Z,14.5
2016-09-12T04:05:33.432Z,14.43
2016-09-12T04:06:32.794Z,14.45
2016-09-12T04:07:32.747Z,14.42
2016-09-12T04:08:32.717Z,14.54
2016-09-12T04:09:32.672Z,14.45
2016-09-12T04:10:32.656Z,14.5
2016-09-12T04:11:33.073Z,14.51
2016-09-12T04:12:33.116Z,14.51
2016-09-12T04:13:32.853Z,14.36
2016-09-12T04:14:32.517Z,14.42
2016-09-12T04:15:32.946Z,14.43
2016-09-12T04:16:32.714Z,14.39
2016-09-12T04:17:32.634Z,14.51
2016-09-12T04:18:32.790Z,14.39
2016-09-12T04:19:32.352Z,14.39
2016-09-12T04:20:32.620Z,14.46
2016-09-12T04:21:32.738Z,14.4
2016-09-12T04:22:32.572Z,14.42
2016-09-12T04:23:32.521Z,14.42
2016-09-12T04:24:32.242Z,14.42
2016-09-12T04:25:32.186Z,14.36
2016-09-12T04:26:32.121Z,14.37
2016-09-12T04:27:32.088Z,14.39
2016-09-12T04:28:32.354Z,14.39
2016-09-12T04:29:32.038Z,14.39
2016-09-12T04:30:32.009Z,14.42
2016-09-12T04:31:31.961Z,14.39
2016-09-12T04:32:32.225Z,14.37
2016-09-12T04:33:32.508Z,14.36
2016-09-12T04:34:31.891Z,14.42
2016-09-12T04:35:31.839Z,14.35
2016-09-12T04:36:32.404Z,14.32
2016-09-12T04:37:31.782Z,14.42
2016-09-12T04:38:32.060Z,14.39
2016-09-12T04:39:31.945Z,14.4
2016-09-12T04:40:31.792Z,14.35
2016-09-12T04:41:31.620Z,14.29
2016-09-12T04:42:31.605Z,14.32
2016-09-12T04:43:31.873Z,14.35
2016-09-12T04:44:32.129Z,14.35
2016-09-12T04:45:31.516Z,14.29
2016-09-12T04:46:31.755Z,14.32
2016-09-12T04:47:31.736Z,14.35
2016-09-12T04:48:31.702Z,14.28
2016-09-12T04:49:31.684Z,14.35
2016-09-12T04:50:31.947Z,14.29
2016-09-12T04:51:31.611Z,14.35
2016-09-12T04:52:31.307Z,14.33
2016-09-12T04:53:31.225Z,14.35
2016-09-12T04:54:31.806Z,14.28
2016-09-12T04:55:31.178Z,14.29
2016-09-12T04:56:31.130Z,14.33
2016-09-12T04:57:31.406Z,14.35
2016-09-12T04:58:31.367Z,14.36
2016-09-12T04:59:31.361Z,14.35
2016-09-12T05:00:31.015Z,14.4
2016-09-12T05:01:31.278Z,14.29
2016-09-12T05:02:30.998Z,14.45
2016-09-12T05:03:31.228Z,14.33
2016-09-12T05:04:31.271Z,14.36
2016-09-12T05:05:31.131Z,14.4
2016-09-12T05:06:30.814Z,14.4
2016-09-12T05:07:31.083Z,14.37
2016-09-12T05:08:31.463Z,14.57
2016-09-12T05:09:31.016Z,14.5
2016-09-12T05:10:30.666Z,14.52
2016-09-12T05:11:31.231Z,14.47
2016-09-12T05:12:30.651Z,14.42
2016-09-12T05:13:30.585Z,14.51
2016-09-12T05:14:30.846Z,14.58
2016-09-12T05:15:30.545Z,14.57
2016-09-12T05:16:30.480Z,14.6
2016-09-12T05:17:30.875Z,14.62
2016-09-12T05:18:30.796Z,14.73
2016-09-12T05:19:30.417Z,14.77
2016-09-12T05:20:30.760Z,14.81
2016-09-12T05:21:30.326Z,14.88
2016-09-12T05:22:30.272Z,14.92
2016-09-12T05:23:30.654Z,14.94
2016-09-12T05:24:30.832Z,14.88
2016-09-12T05:25:30.550Z,14.94
2016-09-12T05:26:30.505Z,14.98
2016-09-12T05:27:30.120Z,15.02
2016-09-12T05:28:30.063Z,15.2
2016-09-12T05:29:30.036Z,15.31
2016-09-12T05:30:30.299Z,15.51
2016-09-12T05:31:30.077Z,15.75
2016-09-12T05:32:29.939Z,16.07
2016-09-12T05:33:29.903Z,16.3
2016-09-12T05:34:29.909Z,16.63
2016-09-12T05:35:30.034Z,16.91
2016-09-12T05:36:29.840Z,17.28
2016-09-12T05:37:29.892Z,17.58
2016-09-12T05:38:29.773Z,17.97
2016-09-12T05:39:30.059Z,18.25
2016-09-12T05:40:29.997Z,18.58
2016-09-12T05:41:29.668Z,18.91
2016-09-12T05:42:29.918Z,19.21
2016-09-12T05:43:29.585Z,19.54
2016-09-12T05:44:29.687Z,19.76
2016-09-12T05:45:29.626Z,19.94
2016-09-12T05:46:29.543Z,20.17
2016-09-12T05:47:29.793Z,20.29
2016-09-12T05:48:30.057Z,20.52
2016-09-12T05:49:29.518Z,20.73
2016-09-12T05:50:29.385Z,20.91
2016-09-12T05:51:29.684Z,21.04
2016-09-12T05:52:29.312Z,21.13
2016-09-12T05:53:29.755Z,21.27
2016-09-12T05:54:29.279Z,21.34
2016-09-12T05:55:29.241Z,21.44
2016-09-12T05:56:29.214Z,21.52
2016-09-12T05:57:29.351Z,21.79
2016-09-12T05:58:29.450Z,21.96
2016-09-12T05:59:29.408Z,22.2
2016-09-12T06:00:29.393Z,22.51
2016-09-12T06:01:29.255Z,22.73
2016-09-12T06:02:29.022Z,22.97
2016-09-12T06:03:28.996Z,23.28
2016-09-12T06:04:28.973Z,23.39
2016-09-12T06:05:28.998Z,23.58
2016-09-12T06:06:29.516Z,23.8
2016-09-12T06:07:29.191Z,24.03
2016-09-12T06:08:29.149Z,24.4
2016-09-12T06:09:32.735Z,24.68
2016-09-12T06:10:29.370Z,25.1
2016-09-12T06:11:28.880Z,25.33
2016-09-12T06:12:29.127Z,25.61
2016-09-12T06:13:29.062Z,25.95
2016-09-12T06:14:29.009Z,26.21
2016-09-12T06:15:28.945Z,26.52
2016-09-12T06:16:28.658Z,26.77
2016-09-12T06:17:28.959Z,27.04
2016-09-12T06:18:28.595Z,27.32
2016-09-12T06:19:28.853Z,27.62
2016-09-12T06:20:39.053Z,27.77
2016-09-12T06:21:30.354Z,27.97
2016-09-12T06:23:15.932Z,28.06
2016-09-12T06:24:33.076Z,28.15
2016-09-12T06:24:59.562Z,28.07
2016-09-12T06:26:59.811Z,27.93
2016-09-12T06:27:59.485Z,27.85
2016-09-12T06:28:59.764Z,27.78
2016-09-12T06:29:59.444Z,27.77
2016-09-12T06:30:59.777Z,27.87
2016-09-12T06:31:59.692Z,28.06
2016-09-12T06:32:59.361Z,28.4
2016-09-12T06:33:59.041Z,28.8
2016-09-12T06:34:59.617Z,29.05
2016-09-12T06:35:59.596Z,29.53
2016-09-12T06:36:59.277Z,29.83
2016-09-12T06:37:59.445Z,30.24
2016-09-12T06:38:59.531Z,30.51
2016-09-12T06:39:59.504Z,30.79
2016-09-12T06:40:59.115Z,30.94
2016-09-12T06:42:11.160Z,31.2
2016-09-12T06:50:13.969Z,31.65
2016-09-12T07:10:39.752Z,36.34
2016-09-12T07:31:02.896Z,39.51
2016-09-12T13:00:58.623Z,27.72
2016-09-12T13:01:58.590Z,27.74
2016-09-12T13:02:58.567Z,27.78
2016-09-12T13:03:58.540Z,27.84
2016-09-12T13:04:58.511Z,27.78
2016-09-12T13:05:58.492Z,27.77
2016-09-12T13:06:58.463Z,27.88
2016-09-12T13:07:58.454Z,27.96
2016-09-12T13:08:58.412Z,27.97
2016-09-12T13:09:58.387Z,27.94
2016-09-12T13:10:58.367Z,27.99
2016-09-12T13:11:58.342Z,28.04
2016-09-12T13:12:58.306Z,28.06
2016-09-12T13:13:58.292Z,28.12
2016-09-12T13:14:58.269Z,28.09
2016-09-12T13:15:58.232Z,28.12
2016-09-12T13:16:57.909Z,28.12
2016-09-12T13:17:58.187Z,28.14
2016-09-12T13:18:58.160Z,28.29
2016-09-12T13:19:57.836Z,28.29
2016-09-12T13:20:58.110Z,28.34
2016-09-12T13:21:58.087Z,28.36
2016-09-12T13:22:57.762Z,28.34
2016-09-12T13:23:58.038Z,28.37
2016-09-12T13:24:57.710Z,28.34
2016-09-12T13:25:57.985Z,28.48
2016-09-12T13:26:57.967Z,28.39
2016-09-12T13:27:57.932Z,28.41
2016-09-12T13:28:57.911Z,28.44
2016-09-12T13:29:57.584Z,28.36
2016-09-12T13:30:57.866Z,28.41
2016-09-12T13:31:57.848Z,28.54
2016-09-12T13:32:57.812Z,28.44
2016-09-12T13:33:57.481Z,28.43
2016-09-12T13:34:57.759Z,28.39
2016-09-12T13:35:57.735Z,28.48
2016-09-12T13:36:57.711Z,28.39
2016-09-12T13:37:57.383Z,28.55
2016-09-12T13:38:57.671Z,28.44
2016-09-12T13:39:57.653Z,28.44
2016-09-12T13:40:57.310Z,28.54
2016-09-12T13:41:57.589Z,28.44
2016-09-12T13:42:57.558Z,28.46
2016-09-12T13:43:57.237Z,28.41
2016-09-12T13:44:57.524Z,28.52
2016-09-12T13:45:57.484Z,28.64
2016-09-12T13:46:57.466Z,28.56
2016-09-12T13:47:57.437Z,28.58
2016-09-12T13:48:57.415Z,28.56
2016-09-12T13:49:57.387Z,28.46
2016-09-12T13:50:57.364Z,28.54
2016-09-12T13:51:57.339Z,28.51
2016-09-12T13:52:57.010Z,28.56
2016-09-12T13:53:57.289Z,28.54
2016-09-12T13:54:57.266Z,28.55
2016-09-12T13:55:57.245Z,28.46
2016-09-12T13:56:57.211Z,28.44
2016-09-12T13:57:56.884Z,28.51
2016-09-12T13:58:57.168Z,28.44
2016-09-12T13:59:56.837Z,28.44
2016-09-12T14:00:57.910Z,28.4
2016-09-12T14:01:57.090Z,28.48
2016-09-12T14:02:56.475Z,28.52
2016-09-12T14:03:57.052Z,28.55
2016-09-12T14:04:57.017Z,28.55
2016-09-12T14:05:56.689Z,28.55
2016-09-12T14:06:56.666Z,28.55
2016-09-12T14:07:56.644Z,28.59
2016-09-12T14:08:56.913Z,28.58
2016-09-12T14:09:56.584Z,28.56
2016-09-12T14:10:56.867Z,28.54
2016-09-12T14:11:56.537Z,28.52
2016-09-12T14:12:56.811Z,28.44
2016-09-12T14:13:56.484Z,28.4
2016-09-12T14:14:56.762Z,28.52
2016-09-12T14:15:56.432Z,28.49
2016-09-12T14:16:56.716Z,28.46
2016-09-12T14:17:56.688Z,28.41
2016-09-12T14:18:56.361Z,28.39
2016-09-12T14:19:56.639Z,28.54
2016-09-12T14:20:56.615Z,28.52
2016-09-12T14:21:56.586Z,28.36
2016-09-12T14:22:56.561Z,28.43
2016-09-12T14:23:56.538Z,28.43
2016-09-12T14:24:56.511Z,28.43
2016-09-12T14:25:56.489Z,28.49
2016-09-12T14:26:56.464Z,28.34
2016-09-12T14:27:56.439Z,28.55
2016-09-12T14:28:56.122Z,28.48
2016-09-12T14:29:56.094Z,28.33
2016-09-12T14:30:56.065Z,28.36
2016-09-12T14:31:56.346Z,28.37
2016-09-12T14:32:56.316Z,28.36
2016-09-12T14:33:56.291Z,28.36
2016-09-12T14:34:55.959Z,28.31
2016-09-12T14:35:55.937Z,28.4
2016-09-12T14:36:56.206Z,28.3
2016-09-12T14:37:56.189Z,28.37
2016-09-12T14:38:56.172Z,28.39
2016-09-12T14:39:56.147Z,28.34
2016-09-12T14:40:56.117Z,28.36
2016-09-12T14:41:56.089Z,28.36
2016-09-12T14:42:55.769Z,28.34
2016-09-12T14:43:56.040Z,28.31
2016-09-12T14:44:56.013Z,28.36
2016-09-12T14:45:56.003Z,28.27
2016-09-12T14:46:55.964Z,28.25
2016-09-12T14:47:55.937Z,28.27
2016-09-12T14:48:55.912Z,28.21
2016-09-12T14:49:55.587Z,28.19
2016-09-12T14:50:55.862Z,28.24
2016-09-12T14:51:55.838Z,28.17
2016-09-12T14:52:55.820Z,28.17
2016-09-12T14:53:55.786Z,28.15
2016-09-12T14:54:55.461Z,28.09
2016-09-12T14:55:55.746Z,28.11
2016-09-12T14:56:55.715Z,28.09
2016-09-12T14:57:55.688Z,28.09
2016-09-12T14:58:55.662Z,28.07
2016-09-12T14:59:55.645Z,28.04
2016-09-12T15:00:55.611Z,28
2016-09-12T15:01:55.297Z,28.06
2016-09-12T15:02:55.256Z,28.02
2016-09-12T15:03:55.244Z,27.99
2016-09-12T15:04:55.512Z,28.04
2016-09-12T15:05:55.190Z,28.03
2016-09-12T15:06:55.461Z,28.03
2016-09-12T15:07:55.448Z,27.93
2016-09-12T15:08:55.413Z,27.96
2016-09-12T15:09:55.092Z,27.97
2016-09-12T15:10:55.064Z,27.96
2016-09-12T15:11:55.331Z,28.03
2016-09-12T15:12:55.008Z,27.96
2016-09-12T15:13:54.981Z,27.9
2016-09-12T15:14:54.960Z,27.88
2016-09-12T15:15:55.241Z,27.87
2016-09-12T15:16:55.211Z,27.82
2016-09-12T15:17:55.179Z,27.9
2016-09-12T15:18:55.160Z,27.84
2016-09-12T15:19:55.135Z,27.82
2016-09-12T15:20:55.109Z,27.82
2016-09-12T15:21:54.777Z,27.75
2016-09-12T15:22:54.753Z,27.82
2016-09-12T15:23:55.041Z,27.79
2016-09-12T15:24:55.012Z,27.79
2016-09-12T15:25:54.978Z,27.72
2016-09-12T15:26:54.969Z,27.67
2016-09-12T15:27:54.931Z,27.67
2016-09-12T15:28:54.910Z,27.72
2016-09-12T15:29:54.888Z,27.7
2016-09-12T15:30:54.252Z,27.67
2016-09-12T15:31:54.536Z,27.6
2016-09-12T15:32:54.803Z,27.63
2016-09-12T15:33:54.784Z,27.51
2016-09-12T15:34:54.448Z,27.54
2016-09-12T15:35:54.121Z,27.54
2016-09-12T15:36:54.696Z,27.5
2016-09-12T15:37:54.675Z,27.6
2016-09-12T15:38:54.651Z,27.44
2016-09-12T15:39:54.623Z,27.39
2016-09-12T15:40:54.594Z,27.31
2016-09-12T15:41:54.576Z,27.32
2016-09-12T15:42:54.239Z,27.27
2016-09-12T15:43:54.217Z,27.25
2016-09-12T15:44:54.489Z,27.09
2016-09-12T15:45:54.172Z,27.09
2016-09-12T15:46:54.144Z,27.02
2016-09-12T15:47:54.125Z,26.94
2016-09-12T15:48:54.090Z,26.92
2016-09-12T15:49:54.061Z,26.84
2016-09-12T15:50:54.338Z,26.75
2016-09-12T15:51:54.318Z,26.76
2016-09-12T15:52:54.302Z,26.73
2016-09-12T15:53:54.264Z,26.72
2016-09-12T15:54:54.235Z,26.62
2016-09-12T15:55:54.225Z,26.55
2016-09-12T15:56:54.188Z,26.58
2016-09-12T15:57:53.858Z,26.57
2016-09-12T15:58:53.827Z,26.43
2016-09-12T15:59:53.814Z,26.33
2016-09-12T16:00:54.087Z,26.26
2016-09-12T16:01:54.067Z,26.21
2016-09-12T16:02:54.031Z,26.26
2016-09-12T16:03:54.010Z,26.15
2016-09-12T16:04:53.989Z,26.15
2016-09-12T16:05:53.951Z,26.02
2016-09-12T16:06:53.929Z,25.98
2016-09-12T16:07:53.904Z,25.87
2016-09-12T16:08:53.570Z,25.9
2016-09-12T16:09:53.844Z,25.9
2016-09-12T16:10:53.520Z,25.8
2016-09-12T16:11:53.196Z,25.75
2016-09-12T16:12:53.772Z,25.79
2016-09-12T16:13:53.444Z,25.7
2016-09-12T16:14:53.713Z,25.69
2016-09-12T16:15:53.387Z,25.72
2016-09-12T16:16:53.664Z,25.6
2016-09-12T16:17:53.641Z,25.6
2016-09-12T16:18:53.609Z,25.6
2016-09-12T16:19:53.585Z,25.64
2016-09-12T16:20:53.560Z,25.57
2016-09-12T16:21:53.541Z,25.51
2016-09-12T16:22:53.506Z,25.54
2016-09-12T16:23:53.173Z,25.51
2016-09-12T16:24:53.151Z,25.47
2016-09-12T16:25:53.122Z,25.35
2016-09-12T16:26:53.401Z,25.43
2016-09-12T16:27:53.074Z,25.28
2016-09-12T16:28:53.351Z,25.36
2016-09-12T16:29:53.017Z,25.28
2016-09-12T16:30:53.292Z,25.33
2016-09-12T16:31:53.267Z,25.21
2016-09-12T16:32:52.941Z,25.25
2016-09-12T16:33:52.909Z,25.23
2016-09-12T16:34:53.201Z,25.24
2016-09-12T16:35:53.158Z,25.21
2016-09-12T16:36:52.832Z,25.17
2016-09-12T16:37:53.112Z,25.14
2016-09-12T16:38:53.077Z,25.15
2016-09-12T16:39:53.055Z,24.98
2016-09-12T16:40:53.018Z,25
2016-09-12T16:41:53.000Z,24.95
2016-09-12T16:42:52.974Z,24.9
2016-09-12T16:43:52.644Z,24.76
2016-09-12T16:44:52.919Z,24.71
2016-09-12T16:45:52.893Z,24.77
2016-09-12T16:46:52.859Z,24.71
2016-09-12T16:47:52.537Z,24.6
2016-09-12T16:48:52.805Z,24.58
2016-09-12T16:49:52.788Z,24.55
2016-09-12T16:50:52.755Z,24.5
2016-09-12T16:51:52.746Z,24.46
2016-09-12T16:52:52.700Z,24.42
2016-09-12T16:53:52.674Z,24.35
2016-09-12T16:54:52.346Z,24.37
2016-09-12T16:55:52.627Z,24.31
2016-09-12T16:56:52.590Z,24.3
2016-09-12T16:57:52.567Z,24.22
2016-09-12T16:58:52.539Z,24.27
2016-09-12T16:59:52.511Z,24.18
2016-09-12T17:00:52.487Z,24.18
2016-09-12T17:01:52.459Z,24.15
2016-09-12T17:02:52.133Z,24.08
2016-09-12T17:03:52.108Z,24
2016-09-12T17:04:51.773Z,24.09
2016-09-12T17:05:52.350Z,24.05
2016-09-12T17:06:52.322Z,24.02
2016-09-12T17:07:52.290Z,23.97
2016-09-12T17:08:51.964Z,24
2016-09-12T17:09:52.237Z,23.9
2016-09-12T17:10:52.212Z,23.91
2016-09-12T17:11:51.878Z,23.88
2016-09-12T17:12:51.853Z,23.85
2016-09-12T17:13:52.131Z,23.87
2016-09-12T17:14:51.805Z,23.83
2016-09-12T17:15:52.074Z,23.8
2016-09-12T17:16:51.748Z,23.78
2016-09-12T17:17:51.718Z,23.78
2016-09-12T17:18:51.992Z,23.73
2016-09-12T17:19:51.661Z,23.76
2016-09-12T17:20:51.652Z,23.76
2016-09-12T17:21:51.911Z,23.68
2016-09-12T17:22:51.898Z,23.68
2016-09-12T17:23:51.867Z,23.69
2016-09-12T17:24:51.830Z,23.55
2016-09-12T17:25:51.802Z,23.57
2016-09-12T17:26:51.470Z,23.51
2016-09-12T17:27:51.744Z,23.46
2016-09-12T17:28:51.719Z,23.5
2016-09-12T17:29:51.385Z,23.39
2016-09-12T17:30:51.363Z,23.32
2016-09-12T17:31:51.330Z,23.32
2016-09-12T17:32:51.304Z,23.16
2016-09-12T17:33:51.273Z,23.23
2016-09-12T17:34:51.559Z,23.15
2016-09-12T17:35:51.525Z,23.16
2016-09-12T17:36:51.499Z,23.12
2016-09-12T17:37:51.166Z,23.15
2016-09-12T17:38:51.136Z,23.02
2016-09-12T17:39:51.410Z,23.01
2016-09-12T17:40:51.376Z,22.92
2016-09-12T17:41:51.354Z,22.86
2016-09-12T17:42:51.038Z,22.91
2016-09-12T17:43:51.004Z,22.91
2016-09-12T17:44:51.272Z,22.83
2016-09-12T17:45:51.253Z,22.8
2016-09-12T17:46:51.225Z,22.83
2016-09-12T17:47:51.189Z,22.68
2016-09-12T17:48:50.859Z,22.75
2016-09-12T17:49:51.136Z,22.64
2016-09-12T17:50:51.105Z,22.61
2016-09-12T17:51:50.775Z,22.65
2016-09-12T17:52:51.047Z,22.6
2016-09-12T17:53:51.023Z,22.61
2016-09-12T17:54:50.998Z,22.57
2016-09-12T17:55:50.976Z,22.52
2016-09-12T17:56:50.940Z,22.57
2016-09-12T17:57:50.606Z,22.35
2016-09-12T17:58:50.881Z,22.39
2016-09-12T17:59:50.854Z,22.45
2016-09-12T18:00:50.822Z,22.42
2016-09-12T18:01:50.493Z,22.37
2016-09-12T18:02:50.767Z,22.31
2016-09-12T18:03:50.751Z,22.31
2016-09-12T18:04:50.107Z,22.36
2016-09-12T18:05:50.077Z,22.27
2016-09-12T18:06:50.664Z,22.27
2016-09-12T18:07:50.643Z,22.22
2016-09-12T18:08:50.295Z,22.2
2016-09-12T18:09:50.271Z,22.17
2016-09-12T18:10:50.565Z,22.17
2016-09-12T18:11:50.513Z,22.14
2016-09-12T18:12:50.180Z,22.14
2016-09-12T18:13:50.160Z,22.15
2016-09-12T18:14:50.127Z,22.03
2016-09-12T18:15:50.100Z,22
2016-09-12T18:16:50.068Z,22.03
2016-09-12T18:17:50.046Z,22.07
2016-09-12T18:18:50.317Z,21.98
2016-09-12T18:19:50.293Z,21.98
2016-09-12T18:20:49.969Z,21.98
2016-09-12T18:21:50.237Z,21.83
2016-09-12T18:22:50.205Z,21.84
2016-09-12T18:23:50.181Z,21.84
2016-09-12T18:24:50.147Z,21.72
2016-09-12T18:25:50.116Z,21.74
2016-09-12T18:26:50.104Z,21.74
2016-09-12T18:27:50.067Z,21.74
2016-09-12T18:28:50.039Z,21.69
2016-09-12T18:29:50.006Z,21.67
2016-09-12T18:30:49.978Z,21.65
2016-09-12T18:31:49.657Z,21.61
2016-09-12T18:32:49.923Z,21.61
2016-09-12T18:33:49.893Z,21.54
2016-09-12T18:34:49.557Z,21.5
2016-09-12T18:35:49.829Z,21.49
2016-09-12T18:36:49.807Z,21.43
2016-09-12T18:37:49.779Z,21.52
2016-09-12T18:38:49.748Z,21.47
2016-09-12T18:39:49.410Z,21.38
2016-09-12T18:40:49.694Z,21.44
2016-09-12T18:41:49.654Z,21.44
2016-09-12T18:42:49.638Z,21.31
2016-09-12T18:43:49.295Z,21.27
2016-09-12T18:44:49.273Z,21.28
2016-09-12T18:45:49.542Z,21.25
2016-09-12T18:46:49.511Z,21.29
2016-09-12T18:47:49.489Z,21.22
2016-09-12T18:48:49.459Z,21.16
2016-09-12T18:49:49.429Z,21.14
2016-09-12T18:50:49.399Z,21.16
2016-09-12T18:51:49.070Z,21.13
2016-09-12T18:52:49.343Z,21.13
2016-09-12T18:53:49.320Z,21.06
2016-09-12T18:54:48.980Z,21.03
2016-09-12T18:55:49.256Z,21.03
2016-09-12T18:56:49.241Z,21.03
2016-09-12T18:57:49.208Z,20.89
2016-09-12T18:58:48.879Z,20.97
2016-09-12T18:59:49.158Z,20.97
2016-09-12T19:00:49.163Z,20.97
2016-09-12T19:01:48.790Z,20.89
2016-09-12T19:02:49.056Z,20.84
2016-09-12T19:03:48.727Z,20.87
2016-09-12T19:04:48.388Z,20.77
2016-09-12T19:05:48.967Z,20.73
2016-09-12T19:06:48.938Z,20.74
2016-09-12T19:07:48.918Z,20.7
2016-09-12T19:08:48.882Z,20.76
2016-09-12T19:09:48.857Z,20.73
2016-09-12T19:10:48.820Z,20.57
2016-09-12T19:11:48.794Z,20.62